sensor_id;sensor_type;location;lat;lon;timestamp;P1;durP1;ratioP1;P2;durP2;ratioP2
29848;SDS011;16728;50.832;5.590;2022-11-20T00:00:46;23.57;;;17.10;;
29848;SDS011;16728;50.832;5.590;2022-11-20T00:03:48;25.73;;;17.23;;
29848;SDS011;16728;50.832;5.590;2022-11-20T00:06:52;26.00;;;17.92;;
29848;SDS011;16728;50.832;5.590;2022-11-20T00:09:54;25.17;;;17.65;;
29848;SDS011;16728;50.832;5.590;2022-11-20T00:12:59;24.67;;;16.67;;
29848;SDS011;16728;50.832;5.590;2022-11-20T00:16:01;25.35;;;17.35;;
29848;SDS011;16728;50.832;5.590;2022-11-20T00:19:05;25.23;;;17.35;;
29848;SDS011;16728;50.832;5.590;2022-11-20T00:22:07;26.45;;;18.00;;
29848;SDS011;16728;50.832;5.590;2022-11-20T00:25:09;25.95;;;17.45;;
29848;SDS011;16728;50.832;5.590;2022-11-20T00:28:10;29.48;;;18.52;;
29848;SDS011;16728;50.832;5.590;2022-11-20T00:31:13;28.65;;;17.75;;
29848;SDS011;16728;50.832;5.590;2022-11-20T00:34:16;26.85;;;18.10;;
29848;SDS011;16728;50.832;5.590;2022-11-20T00:37:18;28.50;;;19.25;;
29848;SDS011;16728;50.832;5.590;2022-11-20T00:40:20;27.50;;;18.20;;
29848;SDS011;16728;50.832;5.590;2022-11-20T00:43:22;25.88;;;17.63;;
29848;SDS011;16728;50.832;5.590;2022-11-20T00:46:24;30.15;;;19.55;;
29848;SDS011;16728;50.832;5.590;2022-11-20T00:49:27;27.75;;;18.73;;
29848;SDS011;16728;50.832;5.590;2022-11-20T00:52:29;29.98;;;18.58;;
29848;SDS011;16728;50.832;5.590;2022-11-20T00:55:31;26.13;;;17.75;;
29848;SDS011;16728;50.832;5.590;2022-11-20T00:58:34;28.00;;;17.85;;
29848;SDS011;16728;50.832;5.590;2022-11-20T01:01:37;30.27;;;18.60;;
29848;SDS011;16728;50.832;5.590;2022-11-20T01:04:39;30.27;;;19.67;;
29848;SDS011;16728;50.832;5.590;2022-11-20T01:07:41;26.27;;;17.80;;
29848;SDS011;16728;50.832;5.590;2022-11-20T01:10:43;26.02;;;18.27;;
29848;SDS011;16728;50.832;5.590;2022-11-20T01:13:45;28.23;;;17.85;;
29848;SDS011;16728;50.832;5.590;2022-11-20T01:16:49;28.17;;;17.55;;
29848;SDS011;16728;50.832;5.590;2022-11-20T01:19:52;27.48;;;18.75;;
29848;SDS011;16728;50.832;5.590;2022-11-20T01:22:54;26.30;;;18.08;;
29848;SDS011;16728;50.832;5.590;2022-11-20T01:25:55;27.92;;;18.10;;
29848;SDS011;16728;50.832;5.590;2022-11-20T01:28:57;28.95;;;18.38;;
29848;SDS011;16728;50.832;5.590;2022-11-20T01:35:02;26.17;;;18.23;;
29848;SDS011;16728;50.832;5.590;2022-11-20T01:38:04;26.58;;;17.80;;
29848;SDS011;16728;50.832;5.590;2022-11-20T01:41:06;26.35;;;16.98;;
29848;SDS011;16728;50.832;5.590;2022-11-20T01:44:10;27.02;;;18.08;;
29848;SDS011;16728;50.832;5.590;2022-11-20T01:47:13;26.42;;;17.90;;
29848;SDS011;16728;50.832;5.590;2022-11-20T01:50:24;26.02;;;17.58;;
29848;SDS011;16728;50.832;5.590;2022-11-20T01:53:31;28.85;;;18.50;;
29848;SDS011;16728;50.832;5.590;2022-11-20T01:56:37;26.55;;;18.48;;
29848;SDS011;16728;50.832;5.590;2022-11-20T01:59:45;27.55;;;18.35;;
29848;SDS011;16728;50.832;5.590;2022-11-20T02:02:53;23.92;;;16.63;;
29848;SDS011;16728;50.832;5.590;2022-11-20T02:06:10;26.02;;;18.60;;
29848;SDS011;16728;50.832;5.590;2022-11-20T02:09:16;26.05;;;17.17;;
29848;SDS011;16728;50.832;5.590;2022-11-20T02:12:18;30.30;;;18.23;;
29848;SDS011;16728;50.832;5.590;2022-11-20T02:15:39;27.15;;;18.17;;
29848;SDS011;16728;50.832;5.590;2022-11-20T02:18:42;27.45;;;19.30;;
29848;SDS011;16728;50.832;5.590;2022-11-20T02:21:51;27.80;;;18.83;;
29848;SDS011;16728;50.832;5.590;2022-11-20T02:25:14;29.83;;;19.48;;
29848;SDS011;16728;50.832;5.590;2022-11-20T02:28:17;30.13;;;20.80;;
29848;SDS011;16728;50.832;5.590;2022-11-20T02:31:19;33.60;;;19.90;;
29848;SDS011;16728;50.832;5.590;2022-11-20T02:34:21;29.38;;;19.33;;
29848;SDS011;16728;50.832;5.590;2022-11-20T02:37:23;29.55;;;19.85;;
29848;SDS011;16728;50.832;5.590;2022-11-20T02:40:31;30.17;;;19.33;;
29848;SDS011;16728;50.832;5.590;2022-11-20T02:43:33;28.02;;;18.33;;
29848;SDS011;16728;50.832;5.590;2022-11-20T02:46:35;30.88;;;19.23;;
29848;SDS011;16728;50.832;5.590;2022-11-20T02:49:37;29.13;;;18.92;;
29848;SDS011;16728;50.832;5.590;2022-11-20T02:52:38;28.38;;;18.67;;
29848;SDS011;16728;50.832;5.590;2022-11-20T02:55:40;29.73;;;19.45;;
29848;SDS011;16728;50.832;5.590;2022-11-20T02:58:42;27.50;;;18.70;;
29848;SDS011;16728;50.832;5.590;2022-11-20T03:01:44;28.50;;;19.60;;
29848;SDS011;16728;50.832;5.590;2022-11-20T03:04:46;26.85;;;18.77;;
29848;SDS011;16728;50.832;5.590;2022-11-20T03:07:48;28.55;;;18.77;;
29848;SDS011;16728;50.832;5.590;2022-11-20T03:10:50;31.52;;;19.25;;
29848;SDS011;16728;50.832;5.590;2022-11-20T03:13:51;30.45;;;19.02;;
29848;SDS011;16728;50.832;5.590;2022-11-20T03:16:53;31.42;;;19.58;;
29848;SDS011;16728;50.832;5.590;2022-11-20T03:19:56;29.25;;;19.33;;
29848;SDS011;16728;50.832;5.590;2022-11-20T03:22:58;34.00;;;20.58;;
29848;SDS011;16728;50.832;5.590;2022-11-20T03:29:31;30.25;;;21.20;;
29848;SDS011;16728;50.832;5.590;2022-11-20T03:32:33;34.75;;;20.30;;
29848;SDS011;16728;50.832;5.590;2022-11-20T03:35:35;39.75;;;22.40;;
29848;SDS011;16728;50.832;5.590;2022-11-20T03:38:37;35.10;;;21.38;;
29848;SDS011;16728;50.832;5.590;2022-11-20T03:41:39;32.50;;;21.30;;
29848;SDS011;16728;50.832;5.590;2022-11-20T03:44:43;32.97;;;21.00;;
29848;SDS011;16728;50.832;5.590;2022-11-20T03:47:45;39.03;;;22.33;;
29848;SDS011;16728;50.832;5.590;2022-11-20T03:50:47;35.05;;;21.92;;
29848;SDS011;16728;50.832;5.590;2022-11-20T03:53:49;36.38;;;22.52;;
29848;SDS011;16728;50.832;5.590;2022-11-20T03:59:54;32.65;;;20.65;;
29848;SDS011;16728;50.832;5.590;2022-11-20T04:02:59;38.38;;;21.80;;
29848;SDS011;16728;50.832;5.590;2022-11-20T04:06:03;40.58;;;22.77;;
29848;SDS011;16728;50.832;5.590;2022-11-20T04:09:09;35.33;;;21.58;;
29848;SDS011;16728;50.832;5.590;2022-11-20T04:12:11;32.50;;;21.88;;
29848;SDS011;16728;50.832;5.590;2022-11-20T04:15:13;41.03;;;22.47;;
29848;SDS011;16728;50.832;5.590;2022-11-20T04:18:15;37.60;;;21.10;;
29848;SDS011;16728;50.832;5.590;2022-11-20T04:21:17;41.28;;;23.13;;
29848;SDS011;16728;50.832;5.590;2022-11-20T04:24:19;34.75;;;21.27;;
29848;SDS011;16728;50.832;5.590;2022-11-20T04:27:21;35.45;;;21.17;;
29848;SDS011;16728;50.832;5.590;2022-11-20T04:30:23;36.63;;;22.42;;
29848;SDS011;16728;50.832;5.590;2022-11-20T04:33:24;41.90;;;21.80;;
29848;SDS011;16728;50.832;5.590;2022-11-20T04:36:29;40.88;;;23.23;;
29848;SDS011;16728;50.832;5.590;2022-11-20T04:39:31;34.85;;;21.65;;
29848;SDS011;16728;50.832;5.590;2022-11-20T04:42:33;39.40;;;22.63;;
29848;SDS011;16728;50.832;5.590;2022-11-20T04:45:35;40.38;;;22.52;;
29848;SDS011;16728;50.832;5.590;2022-11-20T04:48:37;42.80;;;23.10;;
29848;SDS011;16728;50.832;5.590;2022-11-20T04:51:39;36.95;;;22.02;;
29848;SDS011;16728;50.832;5.590;2022-11-20T04:54:40;46.65;;;23.90;;
29848;SDS011;16728;50.832;5.590;2022-11-20T04:57:42;37.67;;;22.58;;
29848;SDS011;16728;50.832;5.590;2022-11-20T05:00:44;41.67;;;23.48;;
29848;SDS011;16728;50.832;5.590;2022-11-20T05:03:46;40.50;;;23.40;;
29848;SDS011;16728;50.832;5.590;2022-11-20T05:06:49;42.47;;;24.08;;
29848;SDS011;16728;50.832;5.590;2022-11-20T05:09:51;38.53;;;23.17;;
29848;SDS011;16728;50.832;5.590;2022-11-20T05:12:54;40.97;;;22.63;;
29848;SDS011;16728;50.832;5.590;2022-11-20T05:16:00;37.50;;;22.05;;
29848;SDS011;16728;50.832;5.590;2022-11-20T05:19:10;35.58;;;20.83;;
29848;SDS011;16728;50.832;5.590;2022-11-20T05:22:11;36.05;;;21.17;;
29848;SDS011;16728;50.832;5.590;2022-11-20T05:25:13;36.35;;;20.85;;
29848;SDS011;16728;50.832;5.590;2022-11-20T05:28:15;36.58;;;22.75;;
29848;SDS011;16728;50.832;5.590;2022-11-20T05:31:18;35.90;;;21.17;;
29848;SDS011;16728;50.832;5.590;2022-11-20T05:34:28;34.88;;;21.35;;
29848;SDS011;16728;50.832;5.590;2022-11-20T05:37:29;38.05;;;22.17;;
29848;SDS011;16728;50.832;5.590;2022-11-20T05:40:31;34.70;;;21.85;;
29848;SDS011;16728;50.832;5.590;2022-11-20T05:43:37;45.88;;;22.38;;
29848;SDS011;16728;50.832;5.590;2022-11-20T05:46:40;37.30;;;22.60;;
29848;SDS011;16728;50.832;5.590;2022-11-20T05:49:42;41.47;;;23.60;;
29848;SDS011;16728;50.832;5.590;2022-11-20T05:52:44;39.53;;;21.65;;
29848;SDS011;16728;50.832;5.590;2022-11-20T05:55:46;40.05;;;23.33;;
29848;SDS011;16728;50.832;5.590;2022-11-20T05:58:48;41.50;;;22.83;;
29848;SDS011;16728;50.832;5.590;2022-11-20T06:01:50;40.80;;;24.17;;
29848;SDS011;16728;50.832;5.590;2022-11-20T06:04:52;41.72;;;23.15;;
29848;SDS011;16728;50.832;5.590;2022-11-20T06:07:53;41.17;;;22.92;;
29848;SDS011;16728;50.832;5.590;2022-11-20T06:10:55;38.17;;;21.55;;
29848;SDS011;16728;50.832;5.590;2022-11-20T06:13:58;40.95;;;23.05;;
29848;SDS011;16728;50.832;5.590;2022-11-20T06:17:00;42.83;;;23.02;;
29848;SDS011;16728;50.832;5.590;2022-11-20T06:20:02;43.03;;;24.52;;
29848;SDS011;16728;50.832;5.590;2022-11-20T06:23:04;44.53;;;24.00;;
29848;SDS011;16728;50.832;5.590;2022-11-20T06:26:07;43.67;;;23.20;;
29848;SDS011;16728;50.832;5.590;2022-11-20T06:29:10;44.47;;;23.25;;
29848;SDS011;16728;50.832;5.590;2022-11-20T06:32:12;45.55;;;24.23;;
29848;SDS011;16728;50.832;5.590;2022-11-20T06:35:14;42.17;;;23.83;;
29848;SDS011;16728;50.832;5.590;2022-11-20T06:38:16;44.63;;;23.27;;
29848;SDS011;16728;50.832;5.590;2022-11-20T06:41:19;39.70;;;22.92;;
29848;SDS011;16728;50.832;5.590;2022-11-20T06:44:21;44.75;;;23.88;;
29848;SDS011;16728;50.832;5.590;2022-11-20T06:47:23;43.15;;;23.85;;
29848;SDS011;16728;50.832;5.590;2022-11-20T06:50:25;41.92;;;22.73;;
29848;SDS011;16728;50.832;5.590;2022-11-20T06:53:27;44.47;;;22.67;;
29848;SDS011;16728;50.832;5.590;2022-11-20T06:56:29;41.63;;;22.60;;
29848;SDS011;16728;50.832;5.590;2022-11-20T06:59:31;38.55;;;22.13;;
29848;SDS011;16728;50.832;5.590;2022-11-20T07:02:33;38.97;;;21.65;;
29848;SDS011;16728;50.832;5.590;2022-11-20T07:05:34;43.00;;;22.38;;
29848;SDS011;16728;50.832;5.590;2022-11-20T07:08:37;38.93;;;21.60;;
29848;SDS011;16728;50.832;5.590;2022-11-20T07:11:39;34.25;;;21.83;;
29848;SDS011;16728;50.832;5.590;2022-11-20T07:14:42;37.08;;;21.73;;
29848;SDS011;16728;50.832;5.590;2022-11-20T07:17:44;40.45;;;22.17;;
29848;SDS011;16728;50.832;5.590;2022-11-20T07:20:46;39.40;;;20.48;;
29848;SDS011;16728;50.832;5.590;2022-11-20T07:23:47;40.58;;;23.05;;
29848;SDS011;16728;50.832;5.590;2022-11-20T07:26:49;40.17;;;21.73;;
29848;SDS011;16728;50.832;5.590;2022-11-20T07:29:51;40.15;;;22.58;;
29848;SDS011;16728;50.832;5.590;2022-11-20T07:32:53;38.17;;;22.85;;
29848;SDS011;16728;50.832;5.590;2022-11-20T07:35:58;36.85;;;21.15;;
29848;SDS011;16728;50.832;5.590;2022-11-20T07:39:01;39.60;;;22.17;;
29848;SDS011;16728;50.832;5.590;2022-11-20T07:42:03;39.78;;;22.38;;
29848;SDS011;16728;50.832;5.590;2022-11-20T07:45:05;40.53;;;22.02;;
29848;SDS011;16728;50.832;5.590;2022-11-20T07:48:07;38.22;;;21.80;;
29848;SDS011;16728;50.832;5.590;2022-11-20T07:51:09;38.70;;;21.92;;
29848;SDS011;16728;50.832;5.590;2022-11-20T07:54:10;37.67;;;22.23;;
29848;SDS011;16728;50.832;5.590;2022-11-20T07:57:12;37.08;;;22.33;;
29848;SDS011;16728;50.832;5.590;2022-11-20T08:00:14;36.83;;;21.75;;
29848;SDS011;16728;50.832;5.590;2022-11-20T08:03:16;37.13;;;23.05;;
29848;SDS011;16728;50.832;5.590;2022-11-20T08:06:25;40.65;;;22.20;;
29848;SDS011;16728;50.832;5.590;2022-11-20T08:09:26;35.88;;;21.27;;
29848;SDS011;16728;50.832;5.590;2022-11-20T08:12:29;36.67;;;21.47;;
29848;SDS011;16728;50.832;5.590;2022-11-20T08:15:50;30.52;;;19.42;;
29848;SDS011;16728;50.832;5.590;2022-11-20T08:18:52;37.23;;;20.93;;
29848;SDS011;16728;50.832;5.590;2022-11-20T08:21:54;36.50;;;21.23;;
29848;SDS011;16728;50.832;5.590;2022-11-20T08:24:56;35.30;;;20.67;;
29848;SDS011;16728;50.832;5.590;2022-11-20T08:27:59;36.92;;;20.77;;
29848;SDS011;16728;50.832;5.590;2022-11-20T08:31:15;38.22;;;21.83;;
29848;SDS011;16728;50.832;5.590;2022-11-20T08:34:17;34.95;;;20.92;;
29848;SDS011;16728;50.832;5.590;2022-11-20T08:37:19;37.00;;;21.60;;
29848;SDS011;16728;50.832;5.590;2022-11-20T08:40:21;40.13;;;21.42;;
29848;SDS011;16728;50.832;5.590;2022-11-20T08:43:23;41.92;;;23.38;;
29848;SDS011;16728;50.832;5.590;2022-11-20T08:46:26;40.83;;;22.52;;
29848;SDS011;16728;50.832;5.590;2022-11-20T08:49:29;44.92;;;23.55;;
29848;SDS011;16728;50.832;5.590;2022-11-20T08:52:31;41.67;;;23.80;;
29848;SDS011;16728;50.832;5.590;2022-11-20T08:55:39;42.50;;;22.98;;
29848;SDS011;16728;50.832;5.590;2022-11-20T08:58:41;39.13;;;21.38;;
29848;SDS011;16728;50.832;5.590;2022-11-20T09:02:03;42.97;;;22.25;;
29848;SDS011;16728;50.832;5.590;2022-11-20T09:05:04;38.35;;;21.30;;
29848;SDS011;16728;50.832;5.590;2022-11-20T09:08:07;40.30;;;19.97;;
29848;SDS011;16728;50.832;5.590;2022-11-20T09:11:09;40.67;;;22.52;;
29848;SDS011;16728;50.832;5.590;2022-11-20T09:14:12;39.05;;;22.10;;
29848;SDS011;16728;50.832;5.590;2022-11-20T09:17:14;43.20;;;21.03;;
29848;SDS011;16728;50.832;5.590;2022-11-20T09:20:16;42.85;;;21.92;;
29848;SDS011;16728;50.832;5.590;2022-11-20T09:23:18;46.92;;;23.10;;
29848;SDS011;16728;50.832;5.590;2022-11-20T09:26:19;41.97;;;22.08;;
29848;SDS011;16728;50.832;5.590;2022-11-20T09:29:21;45.65;;;22.15;;
29848;SDS011;16728;50.832;5.590;2022-11-20T09:32:23;47.13;;;22.25;;
29848;SDS011;16728;50.832;5.590;2022-11-20T09:35:25;40.67;;;22.17;;
29848;SDS011;16728;50.832;5.590;2022-11-20T09:38:27;41.22;;;21.92;;
29848;SDS011;16728;50.832;5.590;2022-11-20T09:48:36;40.17;;;20.77;;
29848;SDS011;16728;50.832;5.590;2022-11-20T09:52:00;46.65;;;23.35;;
29848;SDS011;16728;50.832;5.590;2022-11-20T09:55:35;48.20;;;22.95;;
29848;SDS011;16728;50.832;5.590;2022-11-20T10:01:53;49.47;;;21.77;;
29848;SDS011;16728;50.832;5.590;2022-11-20T10:05:01;50.13;;;23.52;;
29848;SDS011;16728;50.832;5.590;2022-11-20T10:08:20;50.47;;;23.67;;
29848;SDS011;16728;50.832;5.590;2022-11-20T10:11:27;46.10;;;22.13;;
29848;SDS011;16728;50.832;5.590;2022-11-20T10:31:31;51.40;;;22.00;;
29848;SDS011;16728;50.832;5.590;2022-11-20T10:37:44;49.75;;;23.98;;
29848;SDS011;16728;50.832;5.590;2022-11-20T10:40:53;50.67;;;23.83;;
29848;SDS011;16728;50.832;5.590;2022-11-20T10:44:22;51.80;;;23.40;;
29848;SDS011;16728;50.832;5.590;2022-11-20T10:48:05;40.22;;;21.00;;
29848;SDS011;16728;50.832;5.590;2022-11-20T11:01:05;45.83;;;23.52;;
29848;SDS011;16728;50.832;5.590;2022-11-20T11:04:24;47.28;;;23.30;;
29848;SDS011;16728;50.832;5.590;2022-11-20T11:07:45;46.00;;;21.25;;
29848;SDS011;16728;50.832;5.590;2022-11-20T11:10:52;49.17;;;23.75;;
29848;SDS011;16728;50.832;5.590;2022-11-20T11:14:09;44.75;;;23.50;;
29848;SDS011;16728;50.832;5.590;2022-11-20T11:17:29;44.92;;;22.23;;
29848;SDS011;16728;50.832;5.590;2022-11-20T11:20:35;39.10;;;20.98;;
29848;SDS011;16728;50.832;5.590;2022-11-20T11:23:38;41.83;;;21.47;;
29848;SDS011;16728;50.832;5.590;2022-11-20T11:26:50;39.10;;;20.70;;
29848;SDS011;16728;50.832;5.590;2022-11-20T11:30:01;38.65;;;20.70;;
29848;SDS011;16728;50.832;5.590;2022-11-20T11:33:19;37.22;;;20.73;;
29848;SDS011;16728;50.832;5.590;2022-11-20T11:36:26;39.53;;;20.45;;
29848;SDS011;16728;50.832;5.590;2022-11-20T11:39:28;37.95;;;21.02;;
29848;SDS011;16728;50.832;5.590;2022-11-20T11:42:31;41.03;;;20.02;;
29848;SDS011;16728;50.832;5.590;2022-11-20T11:45:33;35.30;;;19.83;;
29848;SDS011;16728;50.832;5.590;2022-11-20T11:48:35;38.75;;;19.30;;
29848;SDS011;16728;50.832;5.590;2022-11-20T11:51:39;39.35;;;20.55;;
29848;SDS011;16728;50.832;5.590;2022-11-20T12:07:48;18.05;;;9.45;;
29848;SDS011;16728;50.832;5.590;2022-11-20T12:11:20;11.25;;;7.18;;
29848;SDS011;16728;50.832;5.590;2022-11-20T12:14:42;12.95;;;6.13;;
29848;SDS011;16728;50.832;5.590;2022-11-20T12:17:48;10.02;;;5.88;;
29848;SDS011;16728;50.832;5.590;2022-11-20T12:41:27;10.77;;;3.75;;
29848;SDS011;16728;50.832;5.590;2022-11-20T12:48:32;9.50;;;3.30;;
29848;SDS011;16728;50.832;5.590;2022-11-20T12:58:25;6.68;;;3.78;;
29848;SDS011;16728;50.832;5.590;2022-11-20T13:01:45;5.90;;;2.50;;
29848;SDS011;16728;50.832;5.590;2022-11-20T13:07:55;6.95;;;2.67;;
29848;SDS011;16728;50.832;5.590;2022-11-20T13:11:01;7.72;;;3.05;;
29848;SDS011;16728;50.832;5.590;2022-11-20T13:17:31;4.40;;;2.33;;
29848;SDS011;16728;50.832;5.590;2022-11-20T13:20:41;8.48;;;2.50;;
29848;SDS011;16728;50.832;5.590;2022-11-20T13:23:47;3.75;;;1.60;;
29848;SDS011;16728;50.832;5.590;2022-11-20T13:27:00;5.88;;;2.28;;
29848;SDS011;16728;50.832;5.590;2022-11-20T13:30:13;3.08;;;1.92;;
29848;SDS011;16728;50.832;5.590;2022-11-20T13:33:23;5.22;;;1.75;;
29848;SDS011;16728;50.832;5.590;2022-11-20T13:36:28;3.15;;;1.90;;
29848;SDS011;16728;50.832;5.590;2022-11-20T13:39:34;3.53;;;1.65;;
29848;SDS011;16728;50.832;5.590;2022-11-20T13:42:38;3.90;;;1.65;;
29848;SDS011;16728;50.832;5.590;2022-11-20T13:46:02;4.07;;;1.65;;
29848;SDS011;16728;50.832;5.590;2022-11-20T13:49:10;5.00;;;1.70;;
29848;SDS011;16728;50.832;5.590;2022-11-20T13:56:05;5.72;;;2.15;;
29848;SDS011;16728;50.832;5.590;2022-11-20T14:02:44;12.15;;;5.78;;
29848;SDS011;16728;50.832;5.590;2022-11-20T14:05:55;9.30;;;3.88;;
29848;SDS011;16728;50.832;5.590;2022-11-20T14:09:03;6.55;;;2.95;;
29848;SDS011;16728;50.832;5.590;2022-11-20T14:12:14;9.02;;;3.45;;
29848;SDS011;16728;50.832;5.590;2022-11-20T14:15:32;7.40;;;3.20;;
29848;SDS011;16728;50.832;5.590;2022-11-20T14:18:35;7.80;;;2.80;;
29848;SDS011;16728;50.832;5.590;2022-11-20T14:21:37;4.13;;;2.17;;
29848;SDS011;16728;50.832;5.590;2022-11-20T14:24:39;4.53;;;2.08;;
29848;SDS011;16728;50.832;5.590;2022-11-20T14:27:42;6.50;;;2.60;;
29848;SDS011;16728;50.832;5.590;2022-11-20T14:30:48;6.60;;;2.72;;
29848;SDS011;16728;50.832;5.590;2022-11-20T14:33:54;5.10;;;2.50;;
29848;SDS011;16728;50.832;5.590;2022-11-20T14:37:00;4.63;;;2.95;;
29848;SDS011;16728;50.832;5.590;2022-11-20T14:43:28;6.18;;;2.83;;
29848;SDS011;16728;50.832;5.590;2022-11-20T14:46:30;8.18;;;2.75;;
29848;SDS011;16728;50.832;5.590;2022-11-20T14:49:33;5.35;;;2.72;;
29848;SDS011;16728;50.832;5.590;2022-11-20T14:52:36;6.18;;;2.47;;
29848;SDS011;16728;50.832;5.590;2022-11-20T14:55:38;7.93;;;3.05;;
29848;SDS011;16728;50.832;5.590;2022-11-20T14:58:40;5.25;;;2.83;;
29848;SDS011;16728;50.832;5.590;2022-11-20T15:01:42;6.47;;;3.25;;
29848;SDS011;16728;50.832;5.590;2022-11-20T15:04:58;4.60;;;3.00;;
29848;SDS011;16728;50.832;5.590;2022-11-20T15:08:06;7.82;;;3.47;;
29848;SDS011;16728;50.832;5.590;2022-11-20T15:11:19;6.15;;;3.67;;
29848;SDS011;16728;50.832;5.590;2022-11-20T15:14:28;6.40;;;4.13;;
29848;SDS011;16728;50.832;5.590;2022-11-20T15:17:32;6.25;;;3.40;;
29848;SDS011;16728;50.832;5.590;2022-11-20T15:20:37;7.43;;;3.42;;
29848;SDS011;16728;50.832;5.590;2022-11-20T15:23:39;7.38;;;3.72;;
29848;SDS011;16728;50.832;5.590;2022-11-20T15:26:42;7.68;;;4.18;;
29848;SDS011;16728;50.832;5.590;2022-11-20T15:29:44;5.60;;;3.80;;
29848;SDS011;16728;50.832;5.590;2022-11-20T15:32:46;7.82;;;3.33;;
29848;SDS011;16728;50.832;5.590;2022-11-20T15:35:48;5.85;;;3.13;;
29848;SDS011;16728;50.832;5.590;2022-11-20T15:38:50;5.70;;;3.47;;
29848;SDS011;16728;50.832;5.590;2022-11-20T15:41:52;4.90;;;2.97;;
29848;SDS011;16728;50.832;5.590;2022-11-20T15:44:54;6.55;;;3.15;;
29848;SDS011;16728;50.832;5.590;2022-11-20T15:47:56;5.65;;;3.22;;
29848;SDS011;16728;50.832;5.590;2022-11-20T15:51:20;5.57;;;2.80;;
29848;SDS011;16728;50.832;5.590;2022-11-20T15:54:25;5.30;;;2.90;;
29848;SDS011;16728;50.832;5.590;2022-11-20T15:57:27;6.47;;;2.97;;
29848;SDS011;16728;50.832;5.590;2022-11-20T16:00:29;2.97;;;2.17;;
29848;SDS011;16728;50.832;5.590;2022-11-20T16:03:32;3.40;;;2.22;;
29848;SDS011;16728;50.832;5.590;2022-11-20T16:06:34;3.53;;;2.28;;
29848;SDS011;16728;50.832;5.590;2022-11-20T16:09:35;2.63;;;2.20;;
29848;SDS011;16728;50.832;5.590;2022-11-20T16:12:37;3.17;;;2.20;;
29848;SDS011;16728;50.832;5.590;2022-11-20T16:15:59;1.85;;;1.50;;
29848;SDS011;16728;50.832;5.590;2022-11-20T16:19:10;2.88;;;1.85;;
29848;SDS011;16728;50.832;5.590;2022-11-20T16:22:13;2.40;;;2.20;;
29848;SDS011;16728;50.832;5.590;2022-11-20T16:25:15;1.77;;;1.60;;
29848;SDS011;16728;50.832;5.590;2022-11-20T16:28:17;1.50;;;1.30;;
29848;SDS011;16728;50.832;5.590;2022-11-20T16:31:19;2.87;;;1.50;;
29848;SDS011;16728;50.832;5.590;2022-11-20T16:34:22;3.75;;;1.73;;
29848;SDS011;16728;50.832;5.590;2022-11-20T16:37:24;4.13;;;2.45;;
29848;SDS011;16728;50.832;5.590;2022-11-20T16:40:29;3.38;;;2.50;;
29848;SDS011;16728;50.832;5.590;2022-11-20T16:43:31;3.15;;;1.85;;
29848;SDS011;16728;50.832;5.590;2022-11-20T16:46:33;2.85;;;1.95;;
29848;SDS011;16728;50.832;5.590;2022-11-20T16:49:35;3.78;;;2.08;;
29848;SDS011;16728;50.832;5.590;2022-11-20T16:52:37;2.92;;;2.47;;
29848;SDS011;16728;50.832;5.590;2022-11-20T16:55:39;4.93;;;2.47;;
29848;SDS011;16728;50.832;5.590;2022-11-20T16:58:43;5.75;;;3.10;;
29848;SDS011;16728;50.832;5.590;2022-11-20T17:01:46;8.40;;;3.95;;
29848;SDS011;16728;50.832;5.590;2022-11-20T17:04:48;5.93;;;3.20;;
29848;SDS011;16728;50.832;5.590;2022-11-20T17:07:50;11.52;;;3.13;;
29848;SDS011;16728;50.832;5.590;2022-11-20T17:10:52;8.43;;;3.50;;
29848;SDS011;16728;50.832;5.590;2022-11-20T17:13:55;4.10;;;3.30;;
29848;SDS011;16728;50.832;5.590;2022-11-20T17:17:00;7.75;;;3.85;;
29848;SDS011;16728;50.832;5.590;2022-11-20T17:20:02;6.47;;;3.45;;
29848;SDS011;16728;50.832;5.590;2022-11-20T17:23:05;7.18;;;3.10;;
29848;SDS011;16728;50.832;5.590;2022-11-20T17:26:13;9.90;;;3.50;;
29848;SDS011;16728;50.832;5.590;2022-11-20T17:29:17;13.60;;;3.72;;
29848;SDS011;16728;50.832;5.590;2022-11-20T17:32:22;9.82;;;3.70;;
29848;SDS011;16728;50.832;5.590;2022-11-20T17:35:23;10.90;;;3.53;;
29848;SDS011;16728;50.832;5.590;2022-11-20T17:38:25;15.65;;;4.05;;
29848;SDS011;16728;50.832;5.590;2022-11-20T17:41:28;11.32;;;3.97;;
29848;SDS011;16728;50.832;5.590;2022-11-20T17:44:30;7.47;;;3.80;;
29848;SDS011;16728;50.832;5.590;2022-11-20T17:47:33;12.27;;;4.32;;
29848;SDS011;16728;50.832;5.590;2022-11-20T17:50:36;10.80;;;3.53;;
29848;SDS011;16728;50.832;5.590;2022-11-20T17:53:39;12.40;;;3.80;;
29848;SDS011;16728;50.832;5.590;2022-11-20T17:56:42;13.20;;;3.63;;
29848;SDS011;16728;50.832;5.590;2022-11-20T18:00:03;11.20;;;3.67;;
29848;SDS011;16728;50.832;5.590;2022-11-20T18:03:05;13.07;;;3.92;;
29848;SDS011;16728;50.832;5.590;2022-11-20T18:06:11;11.18;;;3.47;;
29848;SDS011;16728;50.832;5.590;2022-11-20T18:09:13;9.38;;;3.90;;
29848;SDS011;16728;50.832;5.590;2022-11-20T18:12:15;10.75;;;3.30;;
29848;SDS011;16728;50.832;5.590;2022-11-20T18:15:17;12.05;;;3.60;;
29848;SDS011;16728;50.832;5.590;2022-11-20T18:18:19;17.30;;;4.13;;
29848;SDS011;16728;50.832;5.590;2022-11-20T18:21:21;13.70;;;4.32;;
29848;SDS011;16728;50.832;5.590;2022-11-20T18:27:26;14.07;;;3.90;;
29848;SDS011;16728;50.832;5.590;2022-11-20T18:30:28;12.40;;;3.47;;
29848;SDS011;16728;50.832;5.590;2022-11-20T18:33:30;11.23;;;4.03;;
29848;SDS011;16728;50.832;5.590;2022-11-20T18:36:32;15.35;;;3.80;;
29848;SDS011;16728;50.832;5.590;2022-11-20T18:39:34;14.48;;;3.47;;
29848;SDS011;16728;50.832;5.590;2022-11-20T18:42:36;11.43;;;3.25;;
29848;SDS011;16728;50.832;5.590;2022-11-20T18:46:00;11.02;;;2.97;;
29848;SDS011;16728;50.832;5.590;2022-11-20T18:49:04;9.32;;;2.92;;
29848;SDS011;16728;50.832;5.590;2022-11-20T18:52:06;7.95;;;2.38;;
29848;SDS011;16728;50.832;5.590;2022-11-20T18:55:08;8.15;;;2.60;;
29848;SDS011;16728;50.832;5.590;2022-11-20T18:58:11;9.73;;;2.80;;
29848;SDS011;16728;50.832;5.590;2022-11-20T19:01:13;5.18;;;2.45;;
29848;SDS011;16728;50.832;5.590;2022-11-20T19:04:15;8.90;;;2.15;;
29848;SDS011;16728;50.832;5.590;2022-11-20T19:07:18;7.00;;;1.90;;
29848;SDS011;16728;50.832;5.590;2022-11-20T19:10:20;11.15;;;2.40;;
29848;SDS011;16728;50.832;5.590;2022-11-20T19:13:25;5.40;;;1.90;;
29848;SDS011;16728;50.832;5.590;2022-11-20T19:16:31;8.90;;;2.33;;
29848;SDS011;16728;50.832;5.590;2022-11-20T19:19:33;6.78;;;2.30;;
29848;SDS011;16728;50.832;5.590;2022-11-20T19:22:35;6.80;;;1.73;;
29848;SDS011;16728;50.832;5.590;2022-11-20T19:25:37;8.15;;;1.83;;
29848;SDS011;16728;50.832;5.590;2022-11-20T19:28:38;5.95;;;1.80;;
29848;SDS011;16728;50.832;5.590;2022-11-20T19:31:41;7.95;;;2.17;;
29848;SDS011;16728;50.832;5.590;2022-11-20T19:34:43;3.13;;;1.80;;
29848;SDS011;16728;50.832;5.590;2022-11-20T19:37:45;3.55;;;1.40;;
29848;SDS011;16728;50.832;5.590;2022-11-20T19:40:47;6.00;;;1.75;;
29848;SDS011;16728;50.832;5.590;2022-11-20T19:43:49;5.82;;;1.92;;
29848;SDS011;16728;50.832;5.590;2022-11-20T19:46:51;5.32;;;2.00;;
29848;SDS011;16728;50.832;5.590;2022-11-20T19:49:53;5.97;;;1.90;;
29848;SDS011;16728;50.832;5.590;2022-11-20T19:52:55;7.43;;;1.42;;
29848;SDS011;16728;50.832;5.590;2022-11-20T19:59:09;6.35;;;2.42;;
29848;SDS011;16728;50.832;5.590;2022-11-20T20:02:11;7.13;;;2.30;;
29848;SDS011;16728;50.832;5.590;2022-11-20T20:05:13;15.45;;;2.90;;
29848;SDS011;16728;50.832;5.590;2022-11-20T20:08:15;6.75;;;2.22;;